sensor_id;sensor_type;location;lat;lon;timestamp;P1;durP1;ratioP1;P2;durP2;ratioP2
4391;SDS011;2210;51.938;8.488;2024-02-21T00:01:33;10.80;;;6.07;;
4391;SDS011;2210;51.938;8.488;2024-02-21T00:05:33;16.95;;;7.25;;
4391;SDS011;2210;51.938;8.488;2024-02-21T00:09:46;8.03;;;5.67;;
4391;SDS011;2210;51.938;8.488;2024-02-21T00:13:50;21.83;;;7.27;;
4391;SDS011;2210;51.938;8.488;2024-02-21T00:17:53;10.50;;;6.47;;
4391;SDS011;2210;51.938;8.488;2024-02-21T00:21:53;10.63;;;6.40;;
4391;SDS011;2210;51.938;8.488;2024-02-21T00:26:03;13.47;;;7.40;;
4391;SDS011;2210;51.938;8.488;2024-02-21T00:30:06;9.03;;;6.50;;
4391;SDS011;2210;51.938;8.488;2024-02-21T00:34:07;15.10;;;7.20;;
4391;SDS011;2210;51.938;8.488;2024-02-21T00:38:07;11.37;;;6.63;;
4391;SDS011;2210;51.938;8.488;2024-02-21T00:42:08;13.18;;;6.70;;
4391;SDS011;2210;51.938;8.488;2024-02-21T00:46:08;10.83;;;6.70;;
4391;SDS011;2210;51.938;8.488;2024-02-21T00:50:11;15.67;;;7.63;;
4391;SDS011;2210;51.938;8.488;2024-02-21T00:54:21;10.43;;;5.70;;
4391;SDS011;2210;51.938;8.488;2024-02-21T00:58:22;11.13;;;6.70;;
4391;SDS011;2210;51.938;8.488;2024-02-21T01:02:23;14.50;;;6.93;;
4391;SDS011;2210;51.938;8.488;2024-02-21T01:06:23;14.20;;;6.33;;
4391;SDS011;2210;51.938;8.488;2024-02-21T01:10:27;15.57;;;6.13;;
4391;SDS011;2210;51.938;8.488;2024-02-21T01:14:30;11.93;;;6.63;;
4391;SDS011;2210;51.938;8.488;2024-02-21T01:18:40;11.50;;;6.50;;
4391;SDS011;2210;51.938;8.488;2024-02-21T01:22:43;11.50;;;6.50;;
4391;SDS011;2210;51.938;8.488;2024-02-21T01:26:46;12.50;;;6.20;;
4391;SDS011;2210;51.938;8.488;2024-02-21T01:30:46;10.90;;;7.60;;
4391;SDS011;2210;51.938;8.488;2024-02-21T01:34:47;11.00;;;5.90;;
4391;SDS011;2210;51.938;8.488;2024-02-21T01:38:50;14.93;;;7.00;;
4391;SDS011;2210;51.938;8.488;2024-02-21T01:42:50;10.77;;;6.83;;
4391;SDS011;2210;51.938;8.488;2024-02-21T01:46:53;14.30;;;7.23;;
4391;SDS011;2210;51.938;8.488;2024-02-21T01:50:54;15.43;;;6.80;;
4391;SDS011;2210;51.938;8.488;2024-02-21T01:54:59;10.60;;;6.50;;
4391;SDS011;2210;51.938;8.488;2024-02-21T01:58:59;9.43;;;6.20;;
4391;SDS011;2210;51.938;8.488;2024-02-21T02:03:03;9.10;;;6.50;;
4391;SDS011;2210;51.938;8.488;2024-02-21T02:11:26;13.03;;;7.23;;
4391;SDS011;2210;51.938;8.488;2024-02-21T02:15:26;16.13;;;8.03;;
4391;SDS011;2210;51.938;8.488;2024-02-21T02:19:37;10.43;;;7.50;;
4391;SDS011;2210;51.938;8.488;2024-02-21T02:23:44;11.75;;;6.72;;
4391;SDS011;2210;51.938;8.488;2024-02-21T02:27:44;13.13;;;7.30;;
4391;SDS011;2210;51.938;8.488;2024-02-21T02:31:48;9.77;;;6.60;;
4391;SDS011;2210;51.938;8.488;2024-02-21T02:35:49;11.27;;;6.57;;
4391;SDS011;2210;51.938;8.488;2024-02-21T02:39:52;12.40;;;7.27;;
4391;SDS011;2210;51.938;8.488;2024-02-21T02:43:52;11.60;;;6.77;;
4391;SDS011;2210;51.938;8.488;2024-02-21T02:47:56;10.02;;;6.70;;
4391;SDS011;2210;51.938;8.488;2024-02-21T02:51:56;16.43;;;7.83;;
4391;SDS011;2210;51.938;8.488;2024-02-21T02:55:57;10.43;;;6.87;;
4391;SDS011;2210;51.938;8.488;2024-02-21T03:00:00;10.77;;;7.60;;
4391;SDS011;2210;51.938;8.488;2024-02-21T03:04:00;11.67;;;6.20;;
4391;SDS011;2210;51.938;8.488;2024-02-21T03:08:04;15.03;;;8.13;;
4391;SDS011;2210;51.938;8.488;2024-02-21T03:12:07;8.10;;;5.87;;
4391;SDS011;2210;51.938;8.488;2024-02-21T03:16:16;8.83;;;7.60;;
4391;SDS011;2210;51.938;8.488;2024-02-21T03:20:17;12.50;;;6.20;;
4391;SDS011;2210;51.938;8.488;2024-02-21T03:24:18;11.97;;;7.27;;
4391;SDS011;2210;51.938;8.488;2024-02-21T03:28:25;9.70;;;5.40;;
4391;SDS011;2210;51.938;8.488;2024-02-21T03:32:26;12.00;;;6.47;;
4391;SDS011;2210;51.938;8.488;2024-02-21T03:36:28;10.67;;;6.03;;
4391;SDS011;2210;51.938;8.488;2024-02-21T03:40:31;10.37;;;6.43;;
4391;SDS011;2210;51.938;8.488;2024-02-21T03:44:50;11.17;;;6.30;;
4391;SDS011;2210;51.938;8.488;2024-02-21T03:48:53;11.70;;;6.13;;
4391;SDS011;2210;51.938;8.488;2024-02-21T03:52:53;8.53;;;6.53;;
4391;SDS011;2210;51.938;8.488;2024-02-21T03:56:54;10.77;;;6.22;;
4391;SDS011;2210;51.938;8.488;2024-02-21T04:00:59;14.70;;;6.13;;
4391;SDS011;2210;51.938;8.488;2024-02-21T04:05:03;11.70;;;6.40;;
4391;SDS011;2210;51.938;8.488;2024-02-21T04:09:04;10.47;;;6.80;;
4391;SDS011;2210;51.938;8.488;2024-02-21T04:13:06;8.80;;;6.30;;
4391;SDS011;2210;51.938;8.488;2024-02-21T04:17:06;8.20;;;5.77;;
4391;SDS011;2210;51.938;8.488;2024-02-21T04:21:16;11.70;;;6.00;;
4391;SDS011;2210;51.938;8.488;2024-02-21T04:25:17;7.47;;;5.40;;
4391;SDS011;2210;51.938;8.488;2024-02-21T04:29:17;14.43;;;6.53;;
4391;SDS011;2210;51.938;8.488;2024-02-21T04:33:17;12.60;;;5.83;;
4391;SDS011;2210;51.938;8.488;2024-02-21T04:37:18;12.00;;;6.47;;
4391;SDS011;2210;51.938;8.488;2024-02-21T04:41:24;15.83;;;6.87;;
4391;SDS011;2210;51.938;8.488;2024-02-21T04:45:25;16.93;;;6.40;;
4391;SDS011;2210;51.938;8.488;2024-02-21T04:49:25;10.40;;;5.30;;
4391;SDS011;2210;51.938;8.488;2024-02-21T04:53:25;16.10;;;6.13;;
4391;SDS011;2210;51.938;8.488;2024-02-21T04:57:25;7.95;;;5.50;;
4391;SDS011;2210;51.938;8.488;2024-02-21T05:01:26;10.87;;;5.80;;
4391;SDS011;2210;51.938;8.488;2024-02-21T05:05:28;8.70;;;5.80;;
4391;SDS011;2210;51.938;8.488;2024-02-21T05:09:28;10.20;;;6.28;;
4391;SDS011;2210;51.938;8.488;2024-02-21T05:13:28;7.95;;;5.45;;
4391;SDS011;2210;51.938;8.488;2024-02-21T05:17:28;9.55;;;5.85;;
4391;SDS011;2210;51.938;8.488;2024-02-21T05:21:29;8.07;;;5.13;;
4391;SDS011;2210;51.938;8.488;2024-02-21T05:25:29;9.43;;;6.05;;
4391;SDS011;2210;51.938;8.488;2024-02-21T05:29:29;7.55;;;6.03;;
4391;SDS011;2210;51.938;8.488;2024-02-21T05:33:29;9.13;;;6.63;;
4391;SDS011;2210;51.938;8.488;2024-02-21T05:37:30;10.15;;;6.65;;
4391;SDS011;2210;51.938;8.488;2024-02-21T05:41:30;11.27;;;6.30;;
4391;SDS011;2210;51.938;8.488;2024-02-21T05:45:30;11.80;;;6.05;;
4391;SDS011;2210;51.938;8.488;2024-02-21T05:49:36;15.20;;;6.00;;
4391;SDS011;2210;51.938;8.488;2024-02-21T05:53:37;14.07;;;7.17;;
4391;SDS011;2210;51.938;8.488;2024-02-21T05:57:40;13.70;;;6.90;;
4391;SDS011;2210;51.938;8.488;2024-02-21T06:01:43;11.77;;;7.13;;
4391;SDS011;2210;51.938;8.488;2024-02-21T06:05:44;8.03;;;6.53;;
4391;SDS011;2210;51.938;8.488;2024-02-21T06:09:44;9.20;;;6.40;;
4391;SDS011;2210;51.938;8.488;2024-02-21T06:13:44;11.13;;;7.20;;
4391;SDS011;2210;51.938;8.488;2024-02-21T06:17:45;10.97;;;6.77;;
4391;SDS011;2210;51.938;8.488;2024-02-21T06:21:48;10.70;;;5.95;;
4391;SDS011;2210;51.938;8.488;2024-02-21T06:25:48;11.40;;;6.23;;
4391;SDS011;2210;51.938;8.488;2024-02-21T06:29:48;6.07;;;5.00;;
4391;SDS011;2210;51.938;8.488;2024-02-21T06:33:52;11.00;;;7.82;;
4391;SDS011;2210;51.938;8.488;2024-02-21T06:37:52;8.90;;;5.30;;
4391;SDS011;2210;51.938;8.488;2024-02-21T06:41:52;9.27;;;6.07;;
4391;SDS011;2210;51.938;8.488;2024-02-21T06:45:53;10.83;;;5.90;;
4391;SDS011;2210;51.938;8.488;2024-02-21T06:49:55;16.87;;;5.07;;
4391;SDS011;2210;51.938;8.488;2024-02-21T06:53:55;14.07;;;5.80;;
4391;SDS011;2210;51.938;8.488;2024-02-21T06:57:56;5.73;;;4.70;;
4391;SDS011;2210;51.938;8.488;2024-02-21T07:01:56;9.38;;;5.00;;
4391;SDS011;2210;51.938;8.488;2024-02-21T07:05:56;7.00;;;4.47;;
4391;SDS011;2210;51.938;8.488;2024-02-21T07:10:02;11.30;;;4.82;;
4391;SDS011;2210;51.938;8.488;2024-02-21T07:14:07;8.57;;;4.20;;
4391;SDS011;2210;51.938;8.488;2024-02-21T07:18:13;7.20;;;3.93;;
4391;SDS011;2210;51.938;8.488;2024-02-21T07:22:13;8.17;;;3.90;;
4391;SDS011;2210;51.938;8.488;2024-02-21T07:26:14;8.25;;;4.72;;
4391;SDS011;2210;51.938;8.488;2024-02-21T07:30:14;9.83;;;4.70;;
4391;SDS011;2210;51.938;8.488;2024-02-21T07:34:14;8.20;;;4.53;;
4391;SDS011;2210;51.938;8.488;2024-02-21T07:38:15;4.57;;;3.47;;
4391;SDS011;2210;51.938;8.488;2024-02-21T07:42:15;9.40;;;4.13;;
4391;SDS011;2210;51.938;8.488;2024-02-21T07:46:18;9.67;;;4.53;;
4391;SDS011;2210;51.938;8.488;2024-02-21T07:50:22;5.03;;;4.10;;
4391;SDS011;2210;51.938;8.488;2024-02-21T07:54:22;8.50;;;3.80;;
4391;SDS011;2210;51.938;8.488;2024-02-21T07:58:22;8.30;;;3.80;;
4391;SDS011;2210;51.938;8.488;2024-02-21T08:02:23;8.63;;;3.63;;
4391;SDS011;2210;51.938;8.488;2024-02-21T08:06:23;5.53;;;3.83;;
4391;SDS011;2210;51.938;8.488;2024-02-21T08:10:26;4.50;;;3.50;;
4391;SDS011;2210;51.938;8.488;2024-02-21T08:14:26;15.50;;;4.20;;
4391;SDS011;2210;51.938;8.488;2024-02-21T08:18:27;4.15;;;3.67;;
4391;SDS011;2210;51.938;8.488;2024-02-21T08:22:30;7.13;;;4.07;;
4391;SDS011;2210;51.938;8.488;2024-02-21T08:26:30;5.63;;;3.97;;
4391;SDS011;2210;51.938;8.488;2024-02-21T08:30:34;8.37;;;3.53;;
4391;SDS011;2210;51.938;8.488;2024-02-21T08:34:34;4.37;;;3.63;;
4391;SDS011;2210;51.938;8.488;2024-02-21T08:38:34;8.95;;;4.00;;
4391;SDS011;2210;51.938;8.488;2024-02-21T08:42:35;6.47;;;3.60;;
4391;SDS011;2210;51.938;8.488;2024-02-21T08:46:35;5.93;;;3.20;;
4391;SDS011;2210;51.938;8.488;2024-02-21T08:50:38;8.20;;;3.20;;
4391;SDS011;2210;51.938;8.488;2024-02-21T08:54:38;9.10;;;3.70;;
4391;SDS011;2210;51.938;8.488;2024-02-21T08:58:39;5.30;;;3.47;;
4391;SDS011;2210;51.938;8.488;2024-02-21T09:02:40;6.20;;;4.37;;
4391;SDS011;2210;51.938;8.488;2024-02-21T09:06:45;5.70;;;4.17;;
4391;SDS011;2210;51.938;8.488;2024-02-21T09:10:46;7.07;;;2.93;;
4391;SDS011;2210;51.938;8.488;2024-02-21T09:14:46;5.82;;;3.53;;
4391;SDS011;2210;51.938;8.488;2024-02-21T09:18:52;6.43;;;2.93;;
4391;SDS011;2210;51.938;8.488;2024-02-21T09:22:52;6.03;;;3.30;;
4391;SDS011;2210;51.938;8.488;2024-02-21T09:26:52;5.17;;;3.13;;
4391;SDS011;2210;51.938;8.488;2024-02-21T09:30:55;4.05;;;2.72;;
4391;SDS011;2210;51.938;8.488;2024-02-21T09:35:02;2.53;;;2.00;;
4391;SDS011;2210;51.938;8.488;2024-02-21T09:39:05;6.47;;;2.93;;
4391;SDS011;2210;51.938;8.488;2024-02-21T09:43:05;8.03;;;2.90;;
4391;SDS011;2210;51.938;8.488;2024-02-21T09:47:07;2.30;;;1.97;;
4391;SDS011;2210;51.938;8.488;2024-02-21T09:51:13;3.93;;;2.73;;
4391;SDS011;2210;51.938;8.488;2024-02-21T09:55:15;7.60;;;3.47;;
4391;SDS011;2210;51.938;8.488;2024-02-21T09:59:17;5.30;;;2.87;;
4391;SDS011;2210;51.938;8.488;2024-02-21T10:03:18;4.73;;;2.67;;
4391;SDS011;2210;51.938;8.488;2024-02-21T10:07:18;3.40;;;2.67;;
4391;SDS011;2210;51.938;8.488;2024-02-21T10:11:26;6.10;;;3.37;;
4391;SDS011;2210;51.938;8.488;2024-02-21T10:15:26;6.03;;;3.07;;
4391;SDS011;2210;51.938;8.488;2024-02-21T10:19:26;10.37;;;3.00;;
4391;SDS011;2210;51.938;8.488;2024-02-21T10:23:27;5.43;;;3.60;;
4391;SDS011;2210;51.938;8.488;2024-02-21T10:27:27;5.17;;;4.30;;
4391;SDS011;2210;51.938;8.488;2024-02-21T10:31:28;4.30;;;3.27;;
4391;SDS011;2210;51.938;8.488;2024-02-21T10:35:29;6.37;;;3.63;;
4391;SDS011;2210;51.938;8.488;2024-02-21T10:39:31;5.33;;;3.70;;
4391;SDS011;2210;51.938;8.488;2024-02-21T10:43:37;5.47;;;4.10;;
4391;SDS011;2210;51.938;8.488;2024-02-21T10:47:40;9.50;;;4.53;;
4391;SDS011;2210;51.938;8.488;2024-02-21T10:51:44;6.40;;;3.87;;
4391;SDS011;2210;51.938;8.488;2024-02-21T10:55:48;4.70;;;4.10;;
4391;SDS011;2210;51.938;8.488;2024-02-21T10:59:55;6.03;;;4.70;;
4391;SDS011;2210;51.938;8.488;2024-02-21T11:03:56;7.37;;;4.23;;
4391;SDS011;2210;51.938;8.488;2024-02-21T11:07:58;8.37;;;4.30;;
4391;SDS011;2210;51.938;8.488;2024-02-21T11:12:01;5.63;;;4.67;;
4391;SDS011;2210;51.938;8.488;2024-02-21T11:16:07;7.63;;;4.67;;
4391;SDS011;2210;51.938;8.488;2024-02-21T11:20:12;6.03;;;4.90;;
4391;SDS011;2210;51.938;8.488;2024-02-21T11:24:13;9.40;;;4.43;;
4391;SDS011;2210;51.938;8.488;2024-02-21T11:28:14;6.40;;;4.10;;
4391;SDS011;2210;51.938;8.488;2024-02-21T11:32:25;7.43;;;4.20;;
4391;SDS011;2210;51.938;8.488;2024-02-21T11:36:26;11.60;;;3.90;;
4391;SDS011;2210;51.938;8.488;2024-02-21T11:40:27;5.97;;;3.53;;
4391;SDS011;2210;51.938;8.488;2024-02-21T11:44:28;4.60;;;4.03;;
4391;SDS011;2210;51.938;8.488;2024-02-21T11:48:28;6.43;;;3.78;;
4391;SDS011;2210;51.938;8.488;2024-02-21T11:52:28;5.20;;;3.93;;
4391;SDS011;2210;51.938;8.488;2024-02-21T11:56:28;6.13;;;3.73;;
4391;SDS011;2210;51.938;8.488;2024-02-21T12:00:29;5.33;;;3.90;;
4391;SDS011;2210;51.938;8.488;2024-02-21T12:04:30;8.10;;;3.90;;
4391;SDS011;2210;51.938;8.488;2024-02-21T12:08:40;6.60;;;3.50;;
4391;SDS011;2210;51.938;8.488;2024-02-21T12:12:42;4.43;;;2.00;;
4391;SDS011;2210;51.938;8.488;2024-02-21T12:16:51;8.70;;;2.50;;
4391;SDS011;2210;51.938;8.488;2024-02-21T12:20:58;6.47;;;2.00;;
4391;SDS011;2210;51.938;8.488;2024-02-21T12:24:58;3.93;;;1.77;;
4391;SDS011;2210;51.938;8.488;2024-02-21T12:28:59;4.17;;;2.13;;
4391;SDS011;2210;51.938;8.488;2024-02-21T12:32:59;4.90;;;2.25;;
4391;SDS011;2210;51.938;8.488;2024-02-21T12:37:01;5.23;;;2.03;;
4391;SDS011;2210;51.938;8.488;2024-02-21T12:41:03;7.23;;;3.00;;
4391;SDS011;2210;51.938;8.488;2024-02-21T12:45:04;4.87;;;3.40;;
4391;SDS011;2210;51.938;8.488;2024-02-21T12:49:04;6.40;;;3.53;;
4391;SDS011;2210;51.938;8.488;2024-02-21T12:53:04;5.80;;;3.20;;
4391;SDS011;2210;51.938;8.488;2024-02-21T12:57:05;7.00;;;3.50;;
4391;SDS011;2210;51.938;8.488;2024-02-21T13:01:05;10.07;;;3.67;;
4391;SDS011;2210;51.938;8.488;2024-02-21T13:05:06;9.30;;;3.20;;
4391;SDS011;2210;51.938;8.488;2024-02-21T13:09:07;6.70;;;4.10;;
4391;SDS011;2210;51.938;8.488;2024-02-21T13:13:08;9.73;;;3.40;;
4391;SDS011;2210;51.938;8.488;2024-02-21T13:17:08;4.95;;;2.72;;
4391;SDS011;2210;51.938;8.488;2024-02-21T13:21:08;4.70;;;2.63;;
4391;SDS011;2210;51.938;8.488;2024-02-21T13:25:08;3.43;;;3.00;;
4391;SDS011;2210;51.938;8.488;2024-02-21T13:29:09;3.30;;;2.10;;
4391;SDS011;2210;51.938;8.488;2024-02-21T13:33:09;6.78;;;2.85;;
4391;SDS011;2210;51.938;8.488;2024-02-21T13:37:10;5.20;;;2.23;;
4391;SDS011;2210;51.938;8.488;2024-02-21T13:41:10;4.20;;;1.90;;
4391;SDS011;2210;51.938;8.488;2024-02-21T13:45:10;5.53;;;2.50;;
4391;SDS011;2210;51.938;8.488;2024-02-21T13:49:10;4.10;;;2.23;;
4391;SDS011;2210;51.938;8.488;2024-02-21T13:53:11;3.73;;;2.50;;
4391;SDS011;2210;51.938;8.488;2024-02-21T13:57:11;4.20;;;1.73;;
4391;SDS011;2210;51.938;8.488;2024-02-21T14:01:11;7.27;;;2.70;;
4391;SDS011;2210;51.938;8.488;2024-02-21T14:05:12;4.30;;;3.22;;
4391;SDS011;2210;51.938;8.488;2024-02-21T14:09:12;4.90;;;3.07;;
4391;SDS011;2210;51.938;8.488;2024-02-21T14:13:12;13.60;;;8.20;;
4391;SDS011;2210;51.938;8.488;2024-02-21T14:17:13;7.50;;;2.90;;
4391;SDS011;2210;51.938;8.488;2024-02-21T14:21:13;7.33;;;4.20;;
4391;SDS011;2210;51.938;8.488;2024-02-21T14:25:13;9.37;;;5.10;;
4391;SDS011;2210;51.938;8.488;2024-02-21T14:29:15;10.23;;;2.97;;
4391;SDS011;2210;51.938;8.488;2024-02-21T14:33:15;11.07;;;7.53;;
4391;SDS011;2210;51.938;8.488;2024-02-21T14:37:16;8.60;;;5.40;;
4391;SDS011;2210;51.938;8.488;2024-02-21T14:41:17;7.87;;;5.03;;
4391;SDS011;2210;51.938;8.488;2024-02-21T14:45:17;5.73;;;3.87;;
4391;SDS011;2210;51.938;8.488;2024-02-21T14:49:18;5.80;;;3.47;;
4391;SDS011;2210;51.938;8.488;2024-02-21T14:53:19;4.80;;;3.80;;
4391;SDS011;2210;51.938;8.488;2024-02-21T14:57:19;5.93;;;2.55;;
4391;SDS011;2210;51.938;8.488;2024-02-21T15:01:20;4.77;;;2.53;;
4391;SDS011;2210;51.938;8.488;2024-02-21T15:05:20;4.20;;;3.33;;
4391;SDS011;2210;51.938;8.488;2024-02-21T15:09:21;2.80;;;2.33;;
4391;SDS011;2210;51.938;8.488;2024-02-21T15:13:21;3.10;;;2.10;;
4391;SDS011;2210;51.938;8.488;2024-02-21T15:17:22;4.10;;;2.60;;
4391;SDS011;2210;51.938;8.488;2024-02-21T15:21:22;2.77;;;2.20;;
4391;SDS011;2210;51.938;8.488;2024-02-21T15:25:22;4.30;;;2.10;;
4391;SDS011;2210;51.938;8.488;2024-02-21T15:29:23;6.15;;;2.22;;
4391;SDS011;2210;51.938;8.488;2024-02-21T15:33:23;5.53;;;2.03;;
4391;SDS011;2210;51.938;8.488;2024-02-21T15:37:24;3.73;;;1.67;;
4391;SDS011;2210;51.938;8.488;2024-02-21T15:41:26;5.40;;;2.23;;
4391;SDS011;2210;51.938;8.488;2024-02-21T15:45:26;4.03;;;2.37;;
4391;SDS011;2210;51.938;8.488;2024-02-21T15:49:26;2.20;;;2.00;;
4391;SDS011;2210;51.938;8.488;2024-02-21T15:53:26;3.00;;;2.30;;
4391;SDS011;2210;51.938;8.488;2024-02-21T15:57:27;3.28;;;2.15;;
4391;SDS011;2210;51.938;8.488;2024-02-21T16:01:27;3.57;;;2.20;;
4391;SDS011;2210;51.938;8.488;2024-02-21T16:05:27;4.50;;;2.07;;
4391;SDS011;2210;51.938;8.488;2024-02-21T16:09:28;3.75;;;1.98;;
4391;SDS011;2210;51.938;8.488;2024-02-21T16:13:31;6.73;;;2.20;;
4391;SDS011;2210;51.938;8.488;2024-02-21T16:17:32;4.30;;;2.03;;
4391;SDS011;2210;51.938;8.488;2024-02-21T16:21:32;3.53;;;2.53;;
4391;SDS011;2210;51.938;8.488;2024-02-21T16:25:33;4.50;;;3.30;;
4391;SDS011;2210;51.938;8.488;2024-02-21T16:29:33;3.27;;;2.53;;
4391;SDS011;2210;51.938;8.488;2024-02-21T16:33:33;8.60;;;4.60;;
4391;SDS011;2210;51.938;8.488;2024-02-21T16:37:34;15.20;;;7.00;;
4391;SDS011;2210;51.938;8.488;2024-02-21T16:41:34;20.60;;;12.50;;
4391;SDS011;2210;51.938;8.488;2024-02-21T16:45:34;20.35;;;11.88;;
4391;SDS011;2210;51.938;8.488;2024-02-21T16:49:35;16.87;;;12.00;;
4391;SDS011;2210;51.938;8.488;2024-02-21T16:53:35;9.67;;;6.90;;
4391;SDS011;2210;51.938;8.488;2024-02-21T16:57:35;11.93;;;8.40;;
4391;SDS011;2210;51.938;8.488;2024-02-21T17:01:38;9.83;;;6.10;;
4391;SDS011;2210;51.938;8.488;2024-02-21T17:05:39;6.10;;;3.73;;
4391;SDS011;2210;51.938;8.488;2024-02-21T17:09:39;10.40;;;6.30;;
4391;SDS011;2210;51.938;8.488;2024-02-21T17:13:39;9.77;;;3.70;;
4391;SDS011;2210;51.938;8.488;2024-02-21T17:17:41;9.13;;;4.77;;
4391;SDS011;2210;51.938;8.488;2024-02-21T17:21:41;6.63;;;4.60;;
4391;SDS011;2210;51.938;8.488;2024-02-21T17:25:45;12.47;;;6.53;;
4391;SDS011;2210;51.938;8.488;2024-02-21T17:29:52;5.30;;;3.60;;
4391;SDS011;2210;51.938;8.488;2024-02-21T17:33:52;4.97;;;3.53;;
4391;SDS011;2210;51.938;8.488;2024-02-21T17:37:52;5.15;;;2.63;;
4391;SDS011;2210;51.938;8.488;2024-02-21T17:41:53;2.50;;;2.30;;
4391;SDS011;2210;51.938;8.488;2024-02-21T17:45:59;6.10;;;2.80;;
4391;SDS011;2210;51.938;8.488;2024-02-21T17:49:59;2.70;;;2.03;;
4391;SDS011;2210;51.938;8.488;2024-02-21T17:54:00;2.07;;;1.53;;
4391;SDS011;2210;51.938;8.488;2024-02-21T17:58:00;2.10;;;1.77;;
4391;SDS011;2210;51.938;8.488;2024-02-21T18:02:12;5.73;;;2.80;;
4391;SDS011;2210;51.938;8.488;2024-02-21T18:06:19;7.73;;;4.90;;
4391;SDS011;2210;51.938;8.488;2024-02-21T18:10:22;8.10;;;3.95;;
4391;SDS011;2210;51.938;8.488;2024-02-21T18:14:22;10.60;;;5.50;;
4391;SDS011;2210;51.938;8.488;2024-02-21T18:18:23;21.33;;;9.63;;
4391;SDS011;2210;51.938;8.488;2024-02-21T18:22:26;14.75;;;7.85;;
4391;SDS011;2210;51.938;8.488;2024-02-21T18:26:32;14.93;;;6.90;;
4391;SDS011;2210;51.938;8.488;2024-02-21T18:30:33;18.87;;;11.47;;
4391;SDS011;2210;51.938;8.488;2024-02-21T18:34:33;24.17;;;15.00;;
4391;SDS011;2210;51.938;8.488;2024-02-21T18:38:37;26.30;;;14.27;;
4391;SDS011;2210;51.938;8.488;2024-02-21T18:42:43;4.83;;;2.90;;
4391;SDS011;2210;51.938;8.488;2024-02-21T18:46:43;9.13;;;5.20;;
4391;SDS011;2210;51.938;8.488;2024-02-21T18:50:44;7.17;;;3.57;;
4391;SDS011;2210;51.938;8.488;2024-02-21T18:54:44;7.78;;;4.82;;
4391;SDS011;2210;51.938;8.488;2024-02-21T18:58:56;7.03;;;5.30;;
4391;SDS011;2210;51.938;8.488;2024-02-21T19:02:57;11.90;;;6.90;;
4391;SDS011;2210;51.938;8.488;2024-02-21T19:06:57;6.93;;;4.80;;
4391;SDS011;2210;51.938;8.488;2024-02-21T19:10:57;6.80;;;4.10;;
4391;SDS011;2210;51.938;8.488;2024-02-21T19:14:57;6.60;;;3.97;;
4391;SDS011;2210;51.938;8.488;2024-02-21T19:18:58;3.20;;;2.73;;
4391;SDS011;2210;51.938;8.488;2024-02-21T19:22:58;3.60;;;2.83;;
4391;SDS011;2210;51.938;8.488;2024-02-21T19:26:58;7.27;;;5.60;;
4391;SDS011;2210;51.938;8.488;2024-02-21T19:30:58;3.67;;;2.63;;
4391;SDS011;2210;51.938;8.488;2024-02-21T19:34:59;11.90;;;6.10;;
4391;SDS011;2210;51.938;8.488;2024-02-21T19:39:01;1.87;;;1.77;;
4391;SDS011;2210;51.938;8.488;2024-02-21T19:43:02;4.50;;;3.87;;
4391;SDS011;2210;51.938;8.488;2024-02-21T19:47:02;4.00;;;1.97;;
4391;SDS011;2210;51.938;8.488;2024-02-21T19:51:04;5.17;;;2.87;;
4391;SDS011;2210;51.938;8.488;2024-02-21T19:55:04;4.80;;;2.77;;
4391;SDS011;2210;51.938;8.488;2024-02-21T19:59:05;5.63;;;3.13;;
4391;SDS011;2210;51.938;8.488;2024-02-21T20:03:06;5.30;;;3.03;;
4391;SDS011;2210;51.938;8.488;2024-02-21T20:07:12;3.50;;;2.73;;
4391;SDS011;2210;51.938;8.488;2024-02-21T20:11:12;3.77;;;3.23;;
4391;SDS011;2210;51.938;8.488;2024-02-21T20:15:14;3.40;;;2.67;;
4391;SDS011;2210;51.938;8.488;2024-02-21T20:19:14;3.43;;;2.83;;
4391;SDS011;2210;51.938;8.488;2024-02-21T20:23:16;8.97;;;3.50;;
4391;SDS011;2210;51.938;8.488;2024-02-21T20:27:18;2.77;;;2.20;;
4391;SDS011;2210;51.938;8.488;2024-02-21T20:31:18;6.53;;;4.30;;
4391;SDS011;2210;51.938;8.488;2024-02-21T20:35:23;2.37;;;2.17;;
4391;SDS011;2210;51.938;8.488;2024-02-21T20:39:24;6.63;;;2.47;;
4391;SDS011;2210;51.938;8.488;2024-02-21T20:43:24;2.93;;;2.37;;
4391;SDS011;2210;51.938;8.488;2024-02-21T20:47:28;3.55;;;1.70;;
4391;SDS011;2210;51.938;8.488;2024-02-21T20:51:28;2.50;;;2.30;;
4391;SDS011;2210;51.938;8.488;2024-02-21T20:55:29;5.80;;;2.33;;
4391;SDS011;2210;51.938;8.488;2024-02-21T20:59:30;3.07;;;2.77;;
4391;SDS011;2210;51.938;8.488;2024-02-21T21:03:30;65.38;;;28.90;;
4391;SDS011;2210;51.938;8.488;2024-02-21T21:07:32;11.40;;;4.23;;
4391;SDS011;2210;51.938;8.488;2024-02-21T21:11:33;4.20;;;2.83;;
4391;SDS011;2210;51.938;8.488;2024-02-21T21:15:33;4.40;;;2.58;;
4391;SDS011;2210;51.938;8.488;2024-02-21T21:19:33;4.63;;;2.75;;
4391;SDS011;2210;51.938;8.488;2024-02-21T21:23:33;3.27;;;2.47;;
4391;SDS011;2210;51.938;8.488;2024-02-21T21:27:34;5.33;;;2.30;;
4391;SDS011;2210;51.938;8.488;2024-02-21T21:31:35;2.10;;;1.90;;
4391;SDS011;2210;51.938;8.488;2024-02-21T21:35:35;3.60;;;2.55;;
4391;SDS011;2210;51.938;8.488;2024-02-21T21:39:36;3.83;;;1.80;;
4391;SDS011;2210;51.938;8.488;2024-02-21T21:43:37;1.97;;;1.70;;
4391;SDS011;2210;51.938;8.488;2024-02-21T21:47:39;2.50;;;1.83;;
4391;SDS011;2210;51.938;8.488;2024-02-21T21:51:41;1.60;;;1.50;;
4391;SDS011;2210;51.938;8.488;2024-02-21T21:55:41;2.35;;;1.48;;
4391;SDS011;2210;51.938;8.488;2024-02-21T21:59:51;2.40;;;1.57;;
4391;SDS011;2210;51.938;8.488;2024-02-21T22:03:55;1.70;;;1.13;;
4391;SDS011;2210;51.938;8.488;2024-02-21T22:07:55;4.83;;;2.27;;
4391;SDS011;2210;51.938;8.488;2024-02-21T22:11:58;2.43;;;1.70;;
4391;SDS011;2210;51.938;8.488;2024-02-21T22:16:05;3.22;;;1.40;;
4391;SDS011;2210;51.938;8.488;2024-02-21T22:20:05;1.70;;;1.20;;
4391;SDS011;2210;51.938;8.488;2024-02-21T22:24:06;2.37;;;1.17;;
4391;SDS011;2210;51.938;8.488;2024-02-21T22:28:06;1.70;;;1.60;;
4391;SDS011;2210;51.938;8.488;2024-02-21T22:32:07;2.97;;;1.53;;
4391;SDS011;2210;51.938;8.488;2024-02-21T22:36:09;1.70;;;1.60;;
4391;SDS011;2210;51.938;8.488;2024-02-21T22:40:13;1.57;;;1.47;;
4391;SDS011;2210;51.938;8.488;2024-02-21T22:44:14;1.70;;;1.30;;
4391;SDS011;2210;51.938;8.488;2024-02-21T22:48:14;1.83;;;1.35;;
4391;SDS011;2210;51.938;8.488;2024-02-21T22:52:17;1.40;;;1.30;;
4391;SDS011;2210;51.938;8.488;2024-02-21T22:56:17;2.33;;;1.60;;
4391;SDS011;2210;51.938;8.488;2024-02-21T23:00:18;1.20;;;1.03;;
4391;SDS011;2210;51.938;8.488;2024-02-21T23:04:18;1.97;;;1.27;;
4391;SDS011;2210;51.938;8.488;2024-02-21T23:08:18;3.43;;;1.47;;
4391;SDS011;2210;51.938;8.488;2024-02-21T23:12:19;1.67;;;1.40;;
4391;SDS011;2210;51.938;8.488;2024-02-21T23:16:20;2.27;;;1.20;;
4391;SDS011;2210;51.938;8.488;2024-02-21T23:20:20;1.37;;;1.20;;
4391;SDS011;2210;51.938;8.488;2024-02-21T23:24:20;2.55;;;1.33;;
4391;SDS011;2210;51.938;8.488;2024-02-21T23:28:21;1.65;;;1.20;;
4391;SDS011;2210;51.938;8.488;2024-02-21T23:32:21;1.30;;;1.20;;
4391;SDS011;2210;51.938;8.488;2024-02-21T23:36:21;1.63;;;1.02;;
4391;SDS011;2210;51.938;8.488;2024-02-21T23:40:22;1.90;;;1.17;;
4391;SDS011;2210;51.938;8.488;2024-02-21T23:44:22;1.20;;;1.10;;
4391;SDS011;2210;51.938;8.488;2024-02-21T23:48:22;1.92;;;1.17;;
4391;SDS011;2210;51.938;8.488;2024-02-21T23:52:22;1.30;;;1.20;;
4391;SDS011;2210;51.938;8.488;2024-02-21T23:56:23;1.40;;;1.30;;
